sensor_id;sensor_type;location;lat;lon;timestamp;P1;durP1;ratioP1;P2;durP2;ratioP2
75744;SDS011;64359;51.366;-0.222;2022-12-18T00:00:40;9.20;;;7.30;;
75744;SDS011;64359;51.366;-0.222;2022-12-18T00:01:48;9.80;;;8.50;;
75744;SDS011;64359;51.366;-0.222;2022-12-18T00:02:52;9.90;;;8.10;;
75744;SDS011;64359;51.366;-0.222;2022-12-18T00:03:57;9.90;;;8.40;;
75744;SDS011;64359;51.366;-0.222;2022-12-18T00:05:03;9.10;;;8.20;;
75744;SDS011;64359;51.366;-0.222;2022-12-18T00:06:09;9.30;;;7.10;;
75744;SDS011;64359;51.366;-0.222;2022-12-18T00:07:15;10.20;;;8.40;;
75744;SDS011;64359;51.366;-0.222;2022-12-18T00:08:19;9.90;;;7.50;;
75744;SDS011;64359;51.366;-0.222;2022-12-18T00:09:23;9.00;;;7.70;;
75744;SDS011;64359;51.366;-0.222;2022-12-18T00:10:28;9.50;;;8.40;;
75744;SDS011;64359;51.366;-0.222;2022-12-18T00:11:33;8.50;;;7.40;;
75744;SDS011;64359;51.366;-0.222;2022-12-18T00:12:37;9.90;;;8.80;;
75744;SDS011;64359;51.366;-0.222;2022-12-18T00:13:42;9.70;;;7.80;;
75744;SDS011;64359;51.366;-0.222;2022-12-18T00:14:47;9.00;;;6.90;;
75744;SDS011;64359;51.366;-0.222;2022-12-18T00:15:52;6.90;;;5.90;;
75744;SDS011;64359;51.366;-0.222;2022-12-18T00:16:56;7.20;;;6.50;;
75744;SDS011;64359;51.366;-0.222;2022-12-18T00:18:02;7.00;;;6.30;;
75744;SDS011;64359;51.366;-0.222;2022-12-18T00:19:08;6.00;;;5.50;;
75744;SDS011;64359;51.366;-0.222;2022-12-18T00:20:14;6.80;;;5.50;;
75744;SDS011;64359;51.366;-0.222;2022-12-18T00:21:23;6.60;;;5.20;;
75744;SDS011;64359;51.366;-0.222;2022-12-18T00:22:27;6.20;;;5.60;;
75744;SDS011;64359;51.366;-0.222;2022-12-18T00:23:32;5.80;;;4.90;;
75744;SDS011;64359;51.366;-0.222;2022-12-18T00:24:37;6.00;;;5.00;;
75744;SDS011;64359;51.366;-0.222;2022-12-18T00:25:42;6.80;;;5.50;;
75744;SDS011;64359;51.366;-0.222;2022-12-18T00:26:46;5.80;;;4.90;;
75744;SDS011;64359;51.366;-0.222;2022-12-18T00:27:51;6.60;;;5.90;;
75744;SDS011;64359;51.366;-0.222;2022-12-18T00:28:57;7.00;;;5.30;;
75744;SDS011;64359;51.366;-0.222;2022-12-18T00:30:03;6.50;;;5.90;;
75744;SDS011;64359;51.366;-0.222;2022-12-18T00:31:09;6.30;;;5.70;;
75744;SDS011;64359;51.366;-0.222;2022-12-18T00:32:16;5.00;;;4.40;;
75744;SDS011;64359;51.366;-0.222;2022-12-18T00:33:21;6.00;;;5.20;;
75744;SDS011;64359;51.366;-0.222;2022-12-18T00:34:25;5.70;;;4.90;;
75744;SDS011;64359;51.366;-0.222;2022-12-18T00:35:30;5.90;;;4.90;;
75744;SDS011;64359;51.366;-0.222;2022-12-18T00:36:35;5.80;;;5.10;;
75744;SDS011;64359;51.366;-0.222;2022-12-18T00:37:40;6.30;;;4.90;;
75744;SDS011;64359;51.366;-0.222;2022-12-18T00:38:44;6.10;;;5.20;;
75744;SDS011;64359;51.366;-0.222;2022-12-18T00:39:49;5.80;;;5.00;;
75744;SDS011;64359;51.366;-0.222;2022-12-18T00:40:54;6.20;;;5.60;;
75744;SDS011;64359;51.366;-0.222;2022-12-18T00:41:58;5.80;;;5.20;;
75744;SDS011;64359;51.366;-0.222;2022-12-18T00:43:20;6.00;;;5.40;;
75744;SDS011;64359;51.366;-0.222;2022-12-18T00:44:25;6.10;;;4.90;;
75744;SDS011;64359;51.366;-0.222;2022-12-18T00:45:30;5.80;;;5.20;;
75744;SDS011;64359;51.366;-0.222;2022-12-18T00:46:35;5.80;;;4.80;;
75744;SDS011;64359;51.366;-0.222;2022-12-18T00:47:39;5.00;;;4.40;;
75744;SDS011;64359;51.366;-0.222;2022-12-18T00:48:43;6.50;;;5.50;;
75744;SDS011;64359;51.366;-0.222;2022-12-18T00:49:48;6.60;;;5.40;;
75744;SDS011;64359;51.366;-0.222;2022-12-18T00:50:53;6.20;;;5.60;;
75744;SDS011;64359;51.366;-0.222;2022-12-18T00:51:57;6.70;;;5.90;;
75744;SDS011;64359;51.366;-0.222;2022-12-18T00:53:02;7.60;;;6.20;;
75744;SDS011;64359;51.366;-0.222;2022-12-18T00:54:06;5.80;;;5.20;;
75744;SDS011;64359;51.366;-0.222;2022-12-18T00:55:11;5.90;;;4.90;;
75744;SDS011;64359;51.366;-0.222;2022-12-18T00:56:16;5.60;;;4.80;;
75744;SDS011;64359;51.366;-0.222;2022-12-18T00:57:28;6.90;;;5.30;;
75744;SDS011;64359;51.366;-0.222;2022-12-18T00:58:40;6.40;;;5.80;;
75744;SDS011;64359;51.366;-0.222;2022-12-18T00:59:44;5.40;;;4.80;;
75744;SDS011;64359;51.366;-0.222;2022-12-18T01:00:48;5.40;;;4.70;;
75744;SDS011;64359;51.366;-0.222;2022-12-18T01:01:53;6.20;;;4.70;;
75744;SDS011;64359;51.366;-0.222;2022-12-18T01:02:57;6.50;;;5.50;;
75744;SDS011;64359;51.366;-0.222;2022-12-18T01:04:02;5.90;;;5.30;;
75744;SDS011;64359;51.366;-0.222;2022-12-18T01:05:07;5.60;;;4.70;;
75744;SDS011;64359;51.366;-0.222;2022-12-18T01:06:13;6.60;;;5.90;;
75744;SDS011;64359;51.366;-0.222;2022-12-18T01:07:18;5.80;;;5.20;;
75744;SDS011;64359;51.366;-0.222;2022-12-18T01:08:23;6.50;;;5.80;;
75744;SDS011;64359;51.366;-0.222;2022-12-18T01:09:27;6.30;;;5.60;;
75744;SDS011;64359;51.366;-0.222;2022-12-18T01:10:32;6.00;;;4.70;;
75744;SDS011;64359;51.366;-0.222;2022-12-18T01:11:36;5.60;;;4.80;;
75744;SDS011;64359;51.366;-0.222;2022-12-18T01:12:40;5.90;;;5.30;;
75744;SDS011;64359;51.366;-0.222;2022-12-18T01:13:45;7.30;;;6.20;;
75744;SDS011;64359;51.366;-0.222;2022-12-18T01:14:49;5.80;;;4.90;;
75744;SDS011;64359;51.366;-0.222;2022-12-18T01:15:54;6.80;;;5.50;;
75744;SDS011;64359;51.366;-0.222;2022-12-18T01:16:58;6.10;;;5.50;;
75744;SDS011;64359;51.366;-0.222;2022-12-18T01:18:08;6.30;;;5.70;;
75744;SDS011;64359;51.366;-0.222;2022-12-18T01:19:12;6.90;;;6.20;;
75744;SDS011;64359;51.366;-0.222;2022-12-18T01:20:17;6.20;;;5.60;;
75744;SDS011;64359;51.366;-0.222;2022-12-18T01:21:21;5.90;;;5.40;;
75744;SDS011;64359;51.366;-0.222;2022-12-18T01:22:26;7.50;;;5.60;;
75744;SDS011;64359;51.366;-0.222;2022-12-18T01:23:31;6.30;;;4.80;;
75744;SDS011;64359;51.366;-0.222;2022-12-18T01:24:35;5.30;;;4.80;;
75744;SDS011;64359;51.366;-0.222;2022-12-18T01:25:40;6.10;;;5.50;;
75744;SDS011;64359;51.366;-0.222;2022-12-18T01:26:44;6.50;;;5.80;;
75744;SDS011;64359;51.366;-0.222;2022-12-18T01:27:48;6.30;;;4.90;;
75744;SDS011;64359;51.366;-0.222;2022-12-18T01:28:53;6.90;;;6.20;;
75744;SDS011;64359;51.366;-0.222;2022-12-18T01:29:58;6.30;;;5.70;;
75744;SDS011;64359;51.366;-0.222;2022-12-18T01:31:15;6.20;;;5.60;;
75744;SDS011;64359;51.366;-0.222;2022-12-18T01:32:21;5.30;;;4.40;;
75744;SDS011;64359;51.366;-0.222;2022-12-18T01:33:25;7.80;;;7.00;;
75744;SDS011;64359;51.366;-0.222;2022-12-18T01:34:30;6.50;;;5.80;;
75744;SDS011;64359;51.366;-0.222;2022-12-18T01:35:41;6.10;;;5.50;;
75744;SDS011;64359;51.366;-0.222;2022-12-18T01:36:45;7.40;;;5.70;;
75744;SDS011;64359;51.366;-0.222;2022-12-18T01:37:50;5.80;;;5.10;;
75744;SDS011;64359;51.366;-0.222;2022-12-18T01:38:58;6.60;;;5.60;;
75744;SDS011;64359;51.366;-0.222;2022-12-18T01:40:04;6.50;;;5.80;;
75744;SDS011;64359;51.366;-0.222;2022-12-18T01:41:10;5.70;;;5.00;;
75744;SDS011;64359;51.366;-0.222;2022-12-18T01:42:15;5.10;;;4.50;;
75744;SDS011;64359;51.366;-0.222;2022-12-18T01:43:20;6.60;;;5.20;;
75744;SDS011;64359;51.366;-0.222;2022-12-18T01:46:08;5.20;;;4.40;;
75744;SDS011;64359;51.366;-0.222;2022-12-18T01:47:13;7.20;;;6.50;;
75744;SDS011;64359;51.366;-0.222;2022-12-18T01:48:22;5.70;;;5.10;;
75744;SDS011;64359;51.366;-0.222;2022-12-18T01:49:26;5.40;;;4.90;;
75744;SDS011;64359;51.366;-0.222;2022-12-18T01:50:32;6.30;;;4.40;;
75744;SDS011;64359;51.366;-0.222;2022-12-18T01:51:38;5.30;;;4.60;;
75744;SDS011;64359;51.366;-0.222;2022-12-18T01:52:43;5.60;;;4.50;;
75744;SDS011;64359;51.366;-0.222;2022-12-18T01:53:50;6.20;;;4.70;;
75744;SDS011;64359;51.366;-0.222;2022-12-18T01:54:54;5.70;;;5.00;;
75744;SDS011;64359;51.366;-0.222;2022-12-18T01:55:59;5.10;;;4.60;;
75744;SDS011;64359;51.366;-0.222;2022-12-18T01:57:04;5.10;;;4.30;;
75744;SDS011;64359;51.366;-0.222;2022-12-18T01:58:08;6.80;;;5.00;;
75744;SDS011;64359;51.366;-0.222;2022-12-18T01:59:13;5.40;;;4.90;;
75744;SDS011;64359;51.366;-0.222;2022-12-18T02:00:18;5.70;;;5.10;;
75744;SDS011;64359;51.366;-0.222;2022-12-18T02:01:24;5.90;;;5.20;;
75744;SDS011;64359;51.366;-0.222;2022-12-18T02:02:30;5.60;;;4.40;;
75744;SDS011;64359;51.366;-0.222;2022-12-18T02:03:35;5.60;;;5.00;;
75744;SDS011;64359;51.366;-0.222;2022-12-18T02:04:39;5.00;;;4.50;;
75744;SDS011;64359;51.366;-0.222;2022-12-18T02:05:45;5.40;;;4.60;;
75744;SDS011;64359;51.366;-0.222;2022-12-18T02:06:58;6.40;;;5.80;;
75744;SDS011;64359;51.366;-0.222;2022-12-18T02:08:14;5.60;;;5.20;;
75744;SDS011;64359;51.366;-0.222;2022-12-18T02:09:24;5.00;;;4.50;;
75744;SDS011;64359;51.366;-0.222;2022-12-18T02:10:35;5.10;;;4.60;;
75744;SDS011;64359;51.366;-0.222;2022-12-18T02:11:46;4.60;;;4.20;;
75744;SDS011;64359;51.366;-0.222;2022-12-18T02:13:01;6.40;;;5.90;;
75744;SDS011;64359;51.366;-0.222;2022-12-18T02:14:17;5.40;;;4.60;;
75744;SDS011;64359;51.366;-0.222;2022-12-18T02:15:27;6.20;;;5.70;;
75744;SDS011;64359;51.366;-0.222;2022-12-18T02:16:40;5.40;;;4.20;;
75744;SDS011;64359;51.366;-0.222;2022-12-18T02:17:54;5.40;;;4.60;;
75744;SDS011;64359;51.366;-0.222;2022-12-18T02:19:03;5.60;;;5.10;;
75744;SDS011;64359;51.366;-0.222;2022-12-18T02:20:16;5.80;;;5.30;;
75744;SDS011;64359;51.366;-0.222;2022-12-18T02:21:28;5.60;;;5.00;;
75744;SDS011;64359;51.366;-0.222;2022-12-18T02:22:41;5.30;;;4.60;;
75744;SDS011;64359;51.366;-0.222;2022-12-18T02:23:56;6.00;;;5.50;;
75744;SDS011;64359;51.366;-0.222;2022-12-18T02:25:11;5.10;;;4.60;;
75744;SDS011;64359;51.366;-0.222;2022-12-18T02:26:25;5.40;;;4.90;;
75744;SDS011;64359;51.366;-0.222;2022-12-18T02:28:38;5.10;;;4.60;;
75744;SDS011;64359;51.366;-0.222;2022-12-18T02:29:47;5.50;;;4.90;;
75744;SDS011;64359;51.366;-0.222;2022-12-18T02:30:53;5.50;;;4.90;;
75744;SDS011;64359;51.366;-0.222;2022-12-18T02:32:02;5.40;;;4.30;;
75744;SDS011;64359;51.366;-0.222;2022-12-18T02:33:10;5.80;;;4.70;;
75744;SDS011;64359;51.366;-0.222;2022-12-18T02:34:17;6.20;;;5.70;;
75744;SDS011;64359;51.366;-0.222;2022-12-18T02:35:26;6.00;;;5.40;;
75744;SDS011;64359;51.366;-0.222;2022-12-18T02:36:32;5.40;;;4.80;;
75744;SDS011;64359;51.366;-0.222;2022-12-18T02:37:38;4.70;;;4.20;;
75744;SDS011;64359;51.366;-0.222;2022-12-18T02:38:44;4.50;;;4.10;;
75744;SDS011;64359;51.366;-0.222;2022-12-18T02:39:50;5.40;;;4.30;;
75744;SDS011;64359;51.366;-0.222;2022-12-18T02:40:58;4.90;;;4.30;;
75744;SDS011;64359;51.366;-0.222;2022-12-18T02:42:04;4.60;;;4.00;;
75744;SDS011;64359;51.366;-0.222;2022-12-18T02:43:11;5.20;;;4.70;;
75744;SDS011;64359;51.366;-0.222;2022-12-18T02:44:17;5.60;;;5.10;;
75744;SDS011;64359;51.366;-0.222;2022-12-18T02:45:21;5.00;;;4.50;;
75744;SDS011;64359;51.366;-0.222;2022-12-18T02:46:30;5.40;;;4.60;;
75744;SDS011;64359;51.366;-0.222;2022-12-18T02:47:37;5.00;;;4.50;;
75744;SDS011;64359;51.366;-0.222;2022-12-18T02:48:44;4.60;;;4.10;;
75744;SDS011;64359;51.366;-0.222;2022-12-18T02:49:52;4.90;;;4.50;;
75744;SDS011;64359;51.366;-0.222;2022-12-18T02:51:02;5.60;;;4.30;;
75744;SDS011;64359;51.366;-0.222;2022-12-18T02:52:20;5.10;;;4.60;;
75744;SDS011;64359;51.366;-0.222;2022-12-18T02:53:35;4.70;;;4.30;;
75744;SDS011;64359;51.366;-0.222;2022-12-18T02:54:52;4.70;;;4.20;;
75744;SDS011;64359;51.366;-0.222;2022-12-18T02:56:09;4.50;;;4.10;;
75744;SDS011;64359;51.366;-0.222;2022-12-18T02:57:20;4.60;;;4.10;;
75744;SDS011;64359;51.366;-0.222;2022-12-18T02:58:36;5.20;;;4.60;;
75744;SDS011;64359;51.366;-0.222;2022-12-18T02:59:52;5.10;;;4.60;;
75744;SDS011;64359;51.366;-0.222;2022-12-18T03:01:06;5.50;;;4.70;;
75744;SDS011;64359;51.366;-0.222;2022-12-18T03:02:19;5.50;;;5.00;;
75744;SDS011;64359;51.366;-0.222;2022-12-18T03:03:28;5.50;;;5.00;;
75744;SDS011;64359;51.366;-0.222;2022-12-18T03:04:38;5.50;;;4.90;;
75744;SDS011;64359;51.366;-0.222;2022-12-18T03:05:47;4.50;;;4.00;;
75744;SDS011;64359;51.366;-0.222;2022-12-18T03:06:56;5.10;;;4.60;;
75744;SDS011;64359;51.366;-0.222;2022-12-18T03:09:10;4.50;;;4.00;;
75744;SDS011;64359;51.366;-0.222;2022-12-18T03:10:18;4.90;;;4.40;;
75744;SDS011;64359;51.366;-0.222;2022-12-18T03:11:28;5.00;;;4.50;;
75744;SDS011;64359;51.366;-0.222;2022-12-18T03:12:53;3.70;;;3.40;;
75744;SDS011;64359;51.366;-0.222;2022-12-18T03:14:03;5.10;;;4.60;;
75744;SDS011;64359;51.366;-0.222;2022-12-18T03:15:09;4.40;;;3.90;;
75744;SDS011;64359;51.366;-0.222;2022-12-18T03:16:23;5.00;;;4.60;;
75744;SDS011;64359;51.366;-0.222;2022-12-18T03:17:32;5.20;;;4.70;;
75744;SDS011;64359;51.366;-0.222;2022-12-18T03:18:38;6.20;;;5.50;;
75744;SDS011;64359;51.366;-0.222;2022-12-18T03:19:46;5.10;;;4.60;;
75744;SDS011;64359;51.366;-0.222;2022-12-18T03:20:55;4.80;;;4.30;;
75744;SDS011;64359;51.366;-0.222;2022-12-18T03:22:06;5.10;;;4.60;;
75744;SDS011;64359;51.366;-0.222;2022-12-18T03:23:13;4.60;;;4.20;;
75744;SDS011;64359;51.366;-0.222;2022-12-18T03:24:20;4.00;;;3.60;;
75744;SDS011;64359;51.366;-0.222;2022-12-18T03:25:26;4.60;;;4.10;;
75744;SDS011;64359;51.366;-0.222;2022-12-18T03:26:33;4.80;;;4.30;;
75744;SDS011;64359;51.366;-0.222;2022-12-18T03:27:41;5.20;;;3.70;;
75744;SDS011;64359;51.366;-0.222;2022-12-18T03:28:54;4.10;;;3.70;;
75744;SDS011;64359;51.366;-0.222;2022-12-18T03:30:03;5.00;;;4.60;;
75744;SDS011;64359;51.366;-0.222;2022-12-18T03:31:10;4.00;;;3.60;;
75744;SDS011;64359;51.366;-0.222;2022-12-18T03:32:18;4.10;;;3.40;;
75744;SDS011;64359;51.366;-0.222;2022-12-18T03:33:28;3.90;;;3.40;;
75744;SDS011;64359;51.366;-0.222;2022-12-18T03:34:38;4.50;;;4.10;;
75744;SDS011;64359;51.366;-0.222;2022-12-18T03:35:44;4.30;;;3.70;;
75744;SDS011;64359;51.366;-0.222;2022-12-18T03:36:49;3.80;;;3.40;;
75744;SDS011;64359;51.366;-0.222;2022-12-18T03:37:53;4.30;;;3.90;;
75744;SDS011;64359;51.366;-0.222;2022-12-18T03:39:01;4.00;;;3.50;;
75744;SDS011;64359;51.366;-0.222;2022-12-18T03:40:08;5.20;;;4.70;;
75744;SDS011;64359;51.366;-0.222;2022-12-18T03:41:15;4.10;;;3.70;;
75744;SDS011;64359;51.366;-0.222;2022-12-18T03:42:27;4.30;;;3.90;;
75744;SDS011;64359;51.366;-0.222;2022-12-18T03:44:47;3.60;;;3.30;;
75744;SDS011;64359;51.366;-0.222;2022-12-18T03:45:58;4.40;;;4.00;;
75744;SDS011;64359;51.366;-0.222;2022-12-18T03:47:12;4.50;;;4.00;;
75744;SDS011;64359;51.366;-0.222;2022-12-18T03:48:20;5.30;;;4.80;;
75744;SDS011;64359;51.366;-0.222;2022-12-18T03:49:33;4.80;;;4.30;;
75744;SDS011;64359;51.366;-0.222;2022-12-18T03:50:44;3.70;;;3.40;;
75744;SDS011;64359;51.366;-0.222;2022-12-18T03:51:52;4.40;;;4.00;;
75744;SDS011;64359;51.366;-0.222;2022-12-18T03:53:05;5.00;;;4.50;;
75744;SDS011;64359;51.366;-0.222;2022-12-18T03:54:27;4.30;;;3.90;;
75744;SDS011;64359;51.366;-0.222;2022-12-18T03:55:34;4.60;;;4.20;;
75744;SDS011;64359;51.366;-0.222;2022-12-18T03:56:40;5.20;;;4.70;;
75744;SDS011;64359;51.366;-0.222;2022-12-18T03:57:48;4.70;;;4.30;;
75744;SDS011;64359;51.366;-0.222;2022-12-18T03:58:54;3.50;;;3.10;;
75744;SDS011;64359;51.366;-0.222;2022-12-18T04:00:03;4.70;;;4.20;;
75744;SDS011;64359;51.366;-0.222;2022-12-18T04:01:10;4.60;;;4.20;;
75744;SDS011;64359;51.366;-0.222;2022-12-18T04:02:19;3.50;;;3.00;;
75744;SDS011;64359;51.366;-0.222;2022-12-18T04:03:25;5.20;;;4.30;;
75744;SDS011;64359;51.366;-0.222;2022-12-18T04:04:32;3.80;;;3.50;;
75744;SDS011;64359;51.366;-0.222;2022-12-18T04:05:38;3.70;;;3.30;;
75744;SDS011;64359;51.366;-0.222;2022-12-18T04:06:44;4.00;;;3.60;;
75744;SDS011;64359;51.366;-0.222;2022-12-18T04:07:50;4.10;;;3.40;;
75744;SDS011;64359;51.366;-0.222;2022-12-18T04:08:55;4.20;;;3.80;;
75744;SDS011;64359;51.366;-0.222;2022-12-18T04:10:01;4.00;;;3.60;;
75744;SDS011;64359;51.366;-0.222;2022-12-18T04:11:06;4.60;;;4.20;;
75744;SDS011;64359;51.366;-0.222;2022-12-18T04:12:10;4.80;;;4.40;;
75744;SDS011;64359;51.366;-0.222;2022-12-18T04:13:22;4.30;;;4.00;;
75744;SDS011;64359;51.366;-0.222;2022-12-18T04:14:27;4.20;;;3.80;;
75744;SDS011;64359;51.366;-0.222;2022-12-18T04:15:31;4.10;;;3.40;;
75744;SDS011;64359;51.366;-0.222;2022-12-18T04:16:38;4.70;;;3.80;;
75744;SDS011;64359;51.366;-0.222;2022-12-18T04:17:46;3.60;;;3.30;;
75744;SDS011;64359;51.366;-0.222;2022-12-18T04:18:51;3.90;;;3.50;;
75744;SDS011;64359;51.366;-0.222;2022-12-18T04:19:56;4.10;;;3.70;;
75744;SDS011;64359;51.366;-0.222;2022-12-18T04:21:01;3.40;;;3.10;;
75744;SDS011;64359;51.366;-0.222;2022-12-18T04:22:05;4.20;;;3.70;;
75744;SDS011;64359;51.366;-0.222;2022-12-18T04:23:11;4.20;;;3.80;;
75744;SDS011;64359;51.366;-0.222;2022-12-18T04:24:16;4.40;;;4.00;;
75744;SDS011;64359;51.366;-0.222;2022-12-18T04:25:20;3.80;;;3.00;;
75744;SDS011;64359;51.366;-0.222;2022-12-18T04:26:24;4.00;;;3.60;;
75744;SDS011;64359;51.366;-0.222;2022-12-18T04:27:29;4.20;;;3.80;;
75744;SDS011;64359;51.366;-0.222;2022-12-18T04:28:33;3.40;;;3.10;;
75744;SDS011;64359;51.366;-0.222;2022-12-18T04:29:37;3.30;;;3.00;;
75744;SDS011;64359;51.366;-0.222;2022-12-18T04:30:42;4.20;;;3.80;;
75744;SDS011;64359;51.366;-0.222;2022-12-18T04:31:46;3.50;;;3.20;;
75744;SDS011;64359;51.366;-0.222;2022-12-18T04:32:51;4.00;;;3.70;;
75744;SDS011;64359;51.366;-0.222;2022-12-18T04:33:55;4.60;;;3.40;;
75744;SDS011;64359;51.366;-0.222;2022-12-18T04:34:59;4.10;;;3.70;;
75744;SDS011;64359;51.366;-0.222;2022-12-18T04:36:06;3.00;;;2.70;;
75744;SDS011;64359;51.366;-0.222;2022-12-18T04:37:10;4.20;;;3.80;;
75744;SDS011;64359;51.366;-0.222;2022-12-18T04:38:15;4.50;;;3.50;;
75744;SDS011;64359;51.366;-0.222;2022-12-18T04:39:19;3.80;;;3.40;;
75744;SDS011;64359;51.366;-0.222;2022-12-18T04:40:24;3.30;;;2.80;;
75744;SDS011;64359;51.366;-0.222;2022-12-18T04:41:28;4.00;;;3.60;;
75744;SDS011;64359;51.366;-0.222;2022-12-18T04:42:32;4.00;;;3.60;;
75744;SDS011;64359;51.366;-0.222;2022-12-18T04:43:37;3.30;;;2.90;;
75744;SDS011;64359;51.366;-0.222;2022-12-18T04:44:41;3.70;;;3.30;;
75744;SDS011;64359;51.366;-0.222;2022-12-18T04:45:46;3.10;;;2.80;;
75744;SDS011;64359;51.366;-0.222;2022-12-18T04:46:50;3.70;;;3.30;;
75744;SDS011;64359;51.366;-0.222;2022-12-18T04:47:54;3.80;;;3.50;;
75744;SDS011;64359;51.366;-0.222;2022-12-18T04:49:01;3.30;;;2.90;;
75744;SDS011;64359;51.366;-0.222;2022-12-18T04:50:06;3.50;;;3.20;;
75744;SDS011;64359;51.366;-0.222;2022-12-18T04:51:10;2.70;;;2.50;;
75744;SDS011;64359;51.366;-0.222;2022-12-18T04:52:15;3.40;;;3.00;;
75744;SDS011;64359;51.366;-0.222;2022-12-18T04:53:19;3.40;;;3.10;;
75744;SDS011;64359;51.366;-0.222;2022-12-18T04:54:23;3.50;;;2.80;;
75744;SDS011;64359;51.366;-0.222;2022-12-18T04:55:28;3.40;;;3.10;;
75744;SDS011;64359;51.366;-0.222;2022-12-18T04:56:33;3.60;;;2.60;;
75744;SDS011;64359;51.366;-0.222;2022-12-18T04:57:37;3.30;;;3.00;;
75744;SDS011;64359;51.366;-0.222;2022-12-18T04:58:42;3.60;;;3.30;;
75744;SDS011;64359;51.366;-0.222;2022-12-18T04:59:47;3.60;;;3.20;;
75744;SDS011;64359;51.366;-0.222;2022-12-18T05:00:51;3.60;;;3.30;;
75744;SDS011;64359;51.366;-0.222;2022-12-18T05:01:56;4.10;;;3.70;;
75744;SDS011;64359;51.366;-0.222;2022-12-18T05:03:01;3.70;;;3.40;;
75744;SDS011;64359;51.366;-0.222;2022-12-18T05:04:06;3.10;;;2.80;;
75744;SDS011;64359;51.366;-0.222;2022-12-18T05:05:10;3.60;;;3.30;;
75744;SDS011;64359;51.366;-0.222;2022-12-18T05:06:14;4.00;;;3.50;;
75744;SDS011;64359;51.366;-0.222;2022-12-18T05:07:19;3.90;;;3.20;;
75744;SDS011;64359;51.366;-0.222;2022-12-18T05:08:23;3.40;;;3.10;;
75744;SDS011;64359;51.366;-0.222;2022-12-18T05:09:28;3.80;;;3.50;;
75744;SDS011;64359;51.366;-0.222;2022-12-18T05:10:32;3.30;;;3.00;;
75744;SDS011;64359;51.366;-0.222;2022-12-18T05:11:36;4.00;;;3.70;;
75744;SDS011;64359;51.366;-0.222;2022-12-18T05:12:41;3.00;;;2.70;;
75744;SDS011;64359;51.366;-0.222;2022-12-18T05:14:28;4.20;;;3.80;;
75744;SDS011;64359;51.366;-0.222;2022-12-18T05:15:32;3.10;;;2.80;;
75744;SDS011;64359;51.366;-0.222;2022-12-18T05:16:37;3.40;;;3.10;;
75744;SDS011;64359;51.366;-0.222;2022-12-18T05:17:42;3.10;;;2.80;;
75744;SDS011;64359;51.366;-0.222;2022-12-18T05:18:46;3.50;;;3.10;;
75744;SDS011;64359;51.366;-0.222;2022-12-18T05:19:51;3.20;;;2.90;;
75744;SDS011;64359;51.366;-0.222;2022-12-18T05:20:55;3.00;;;2.70;;
75744;SDS011;64359;51.366;-0.222;2022-12-18T05:21:59;3.10;;;2.90;;
75744;SDS011;64359;51.366;-0.222;2022-12-18T05:23:04;2.90;;;2.70;;
75744;SDS011;64359;51.366;-0.222;2022-12-18T05:24:08;3.30;;;3.00;;
75744;SDS011;64359;51.366;-0.222;2022-12-18T05:25:13;4.40;;;4.00;;
75744;SDS011;64359;51.366;-0.222;2022-12-18T05:26:18;3.70;;;3.40;;
75744;SDS011;64359;51.366;-0.222;2022-12-18T05:27:22;3.60;;;3.30;;
75744;SDS011;64359;51.366;-0.222;2022-12-18T05:28:27;3.30;;;3.00;;
75744;SDS011;64359;51.366;-0.222;2022-12-18T05:29:33;4.00;;;3.70;;
75744;SDS011;64359;51.366;-0.222;2022-12-18T05:30:37;2.90;;;2.60;;
75744;SDS011;64359;51.366;-0.222;2022-12-18T05:31:42;3.20;;;2.80;;
75744;SDS011;64359;51.366;-0.222;2022-12-18T05:32:46;2.70;;;2.50;;
75744;SDS011;64359;51.366;-0.222;2022-12-18T05:33:50;3.30;;;3.00;;
75744;SDS011;64359;51.366;-0.222;2022-12-18T05:34:55;3.30;;;2.90;;
75744;SDS011;64359;51.366;-0.222;2022-12-18T05:36:00;3.20;;;2.70;;
75744;SDS011;64359;51.366;-0.222;2022-12-18T05:37:05;3.70;;;3.40;;
75744;SDS011;64359;51.366;-0.222;2022-12-18T05:38:10;3.80;;;3.30;;
75744;SDS011;64359;51.366;-0.222;2022-12-18T05:39:14;3.10;;;2.70;;
75744;SDS011;64359;51.366;-0.222;2022-12-18T05:40:18;3.60;;;3.20;;
75744;SDS011;64359;51.366;-0.222;2022-12-18T05:41:23;3.30;;;3.00;;
75744;SDS011;64359;51.366;-0.222;2022-12-18T05:42:27;3.60;;;3.20;;
75744;SDS011;64359;51.366;-0.222;2022-12-18T05:43:33;3.90;;;3.50;;
75744;SDS011;64359;51.366;-0.222;2022-12-18T05:44:38;2.80;;;2.50;;
75744;SDS011;64359;51.366;-0.222;2022-12-18T05:45:43;3.50;;;3.20;;
75744;SDS011;64359;51.366;-0.222;2022-12-18T05:46:47;2.90;;;2.60;;
75744;SDS011;64359;51.366;-0.222;2022-12-18T05:47:51;3.80;;;3.50;;
75744;SDS011;64359;51.366;-0.222;2022-12-18T05:48:58;3.50;;;2.70;;
75744;SDS011;64359;51.366;-0.222;2022-12-18T05:50:03;4.00;;;3.60;;
75744;SDS011;64359;51.366;-0.222;2022-12-18T05:51:10;3.70;;;3.40;;
75744;SDS011;64359;51.366;-0.222;2022-12-18T05:52:16;3.80;;;3.50;;
75744;SDS011;64359;51.366;-0.222;2022-12-18T05:53:21;3.70;;;3.40;;
75744;SDS011;64359;51.366;-0.222;2022-12-18T05:54:26;3.90;;;3.60;;
75744;SDS011;64359;51.366;-0.222;2022-12-18T05:55:32;4.10;;;3.40;;
75744;SDS011;64359;51.366;-0.222;2022-12-18T05:56:36;3.80;;;3.50;;
75744;SDS011;64359;51.366;-0.222;2022-12-18T05:57:41;4.80;;;4.40;;
75744;SDS011;64359;51.366;-0.222;2022-12-18T05:58:45;3.70;;;3.40;;
75744;SDS011;64359;51.366;-0.222;2022-12-18T05:59:50;3.40;;;3.10;;
75744;SDS011;64359;51.366;-0.222;2022-12-18T06:00:55;3.70;;;3.40;;
75744;SDS011;64359;51.366;-0.222;2022-12-18T06:01:59;2.90;;;2.70;;
75744;SDS011;64359;51.366;-0.222;2022-12-18T06:03:04;3.00;;;2.70;;
75744;SDS011;64359;51.366;-0.222;2022-12-18T06:04:08;2.70;;;2.50;;
75744;SDS011;64359;51.366;-0.222;2022-12-18T06:05:13;4.30;;;3.50;;
75744;SDS011;64359;51.366;-0.222;2022-12-18T06:06:18;2.70;;;2.40;;
75744;SDS011;64359;51.366;-0.222;2022-12-18T06:07:24;2.80;;;2.60;;
75744;SDS011;64359;51.366;-0.222;2022-12-18T06:08:29;2.60;;;2.40;;
75744;SDS011;64359;51.366;-0.222;2022-12-18T06:09:33;3.10;;;2.80;;
75744;SDS011;64359;51.366;-0.222;2022-12-18T06:10:38;2.70;;;2.50;;
75744;SDS011;64359;51.366;-0.222;2022-12-18T06:11:42;3.30;;;3.00;;
75744;SDS011;64359;51.366;-0.222;2022-12-18T06:12:46;3.30;;;3.00;;
75744;SDS011;64359;51.366;-0.222;2022-12-18T06:13:51;3.00;;;2.70;;
75744;SDS011;64359;51.366;-0.222;2022-12-18T06:14:57;3.50;;;3.20;;
75744;SDS011;64359;51.366;-0.222;2022-12-18T06:16:02;3.60;;;2.70;;
75744;SDS011;64359;51.366;-0.222;2022-12-18T06:17:08;4.10;;;3.80;;
75744;SDS011;64359;51.366;-0.222;2022-12-18T06:18:12;3.50;;;2.90;;
75744;SDS011;64359;51.366;-0.222;2022-12-18T06:19:16;3.00;;;2.50;;
75744;SDS011;64359;51.366;-0.222;2022-12-18T06:20:21;3.20;;;2.90;;
75744;SDS011;64359;51.366;-0.222;2022-12-18T06:21:25;3.80;;;3.00;;
75744;SDS011;64359;51.366;-0.222;2022-12-18T06:22:31;4.10;;;3.70;;
75744;SDS011;64359;51.366;-0.222;2022-12-18T06:23:36;2.70;;;2.30;;
75744;SDS011;64359;51.366;-0.222;2022-12-18T06:24:40;2.90;;;2.60;;
75744;SDS011;64359;51.366;-0.222;2022-12-18T06:25:45;3.50;;;3.20;;
75744;SDS011;64359;51.366;-0.222;2022-12-18T06:26:49;3.00;;;2.50;;
75744;SDS011;64359;51.366;-0.222;2022-12-18T06:27:54;2.80;;;2.60;;
75744;SDS011;64359;51.366;-0.222;2022-12-18T06:28:59;3.20;;;2.90;;
75744;SDS011;64359;51.366;-0.222;2022-12-18T06:30:04;3.00;;;2.70;;
75744;SDS011;64359;51.366;-0.222;2022-12-18T06:31:10;2.70;;;2.50;;
75744;SDS011;64359;51.366;-0.222;2022-12-18T06:32:15;3.00;;;2.70;;
75744;SDS011;64359;51.366;-0.222;2022-12-18T06:33:19;3.10;;;2.80;;
75744;SDS011;64359;51.366;-0.222;2022-12-18T06:34:24;3.90;;;3.10;;
75744;SDS011;64359;51.366;-0.222;2022-12-18T06:35:28;5.40;;;3.80;;
75744;SDS011;64359;51.366;-0.222;2022-12-18T06:36:34;3.40;;;2.80;;
75744;SDS011;64359;51.366;-0.222;2022-12-18T06:37:38;4.40;;;4.00;;
75744;SDS011;64359;51.366;-0.222;2022-12-18T06:38:43;3.90;;;3.10;;
75744;SDS011;64359;51.366;-0.222;2022-12-18T06:39:48;3.20;;;2.80;;